10 GIRO DELL'UMBRIA A TAPPE

1^ TAPPA - Cascata delle Marmore (TR) - km 12,100

12/04/2012

 

CLASSIFICA ASSOLUTA MASCHILE
Pos. Pet. Cognome Nome Anno Societa' Categoria Tempo Media
1 1 Conti Piergiorgio 70 Atl Avis Pg MM 40 0:40:53 3,23
2 10 Pontani Luigi 68 Atl Avis Pg MM 40 0:41:34 3,26
3 4 Ragni  Marco 80 Dream Runners PG AM.TM 0:41:39 3,27
4 2 Dall'Ara  Michele 76 Atl Pavese (MI) MM 35 0:41:49 3,27
5 5 Montioni  Cesare 81 Atl. Capanne AM.TM 0:43:23 3,35
6 11 Ametrano  Alessio 83 Pod. Corciano AM.TM 0:44:03 3,38
7 57 Toni Michele 65 G.S. Gabbi MM 45 0:44:17 3,40
8 22 Mangili Manuel 79 Atl Pavese (MI) AM.TM 0:44:24 3,40
9 7 Tortoioli  Marco 72 Atl Avis Pg MM 40 0:44:33 3,41
10 13 Curcio Antonio 80 Atl Pavese (MI) AM.TM 0:44:38 3,41
11 6 Facciolo Valerio 68 Atl Pavese (MI) MM 40 0:44:46 3,42
12 24 Salari Michele 75 Pod. Avis Fabriano MM 35 0:44:49 3,42
13 9 Morani Evian 72 Assisi Runners MM 40 0:44:53 3,43
14 68 Giorgetti  Claudio 60 Amatori Podistica Terni MM 50 0:45:13 3,44
15 34 Pirilli Andrea 69 Dream Runners PG MM 40 0:45:35 3,46
16 56 Tini  Fabrizio 67 Atl. Capanne MM 45 0:45:35 3,46
17 37 Sfondalmondo Massimiliano 71 Atl Avis Pg MM 40 0:46:02 3,48
18 55 Ranieri  Giovanni 65 Olympic Lama MM 45 0:46:04 3,48
19 102 Masiero Orazio 52 Voltan Mestre MM 60 0:46:06 3,49
20 8 Bordoni  Paolo 63 Dream Runners PG MM 45 0:46:09 3,49
21 75 Pallotta Roberto 62 Winner Foligno MM 50 0:46:15 3,49
22 74 Palanca Annibale 58 C.d.p. Trb Group MM 50 0:46:20 3,50
23 67 Giacomelli Matteo 86 ASD Avis Terni AM.TM 0:46:46 3,52
24 42 Bazzucchi Mauro 65 Aspa Bastia MM 45 0:47:06 3,54
25 26 Torti Mirko 75 Winner Foligno MM 35 0:47:08 3,54
26 47 Casalini Sergio 84 Winner Foligno AM.TM 0:47:15 3,54
27 71 Mattioli  Claudio 59 Atl Avis Pg MM 50 0:47:19 3,55
28 41 Bastianini  Federico 66 Dimarco Sport (VT) MM 45 0:47:23 3,55
29 86 D'Amico Giovanni 56 C.d.p. Trb Group MM 55 0:47:28 3,55
30 54 Polticchia  Roberto 64 C.d.p. Trb Group MM 45 0:47:31 3,56
31 12 Angelucci Gabriele 86 Winner Foligno AM.TM 0:47:34 3,56
32 3 Baldelli Giuseppe 68 Atl Avis Pg MM 40 0:48:07 3,59
33 25 Sfodera Marco 74 Pod. Corciano MM 35 0:48:29 4,00
34 33 Muti Massimiliano 68 Satrini Group Trevi MM 40 0:48:32 4,01
35 40 Arcelli  Fabrizio 64 Atl Avis Pg MM 45 0:48:47 4,02
36 88 Frenguelli Franco 56 Atl Avis Pg MM 55 0:48:54 4,02
37 64 Covarelli Mauro 59 Atl Avis Pg MM 50 0:49:03 4,03
38 36 Ridolfi  Massimiliano 70 Assisi Runners MM 40 0:49:42 4,06
39 101 Mangialasche Alfonso 51 C.d.p. Trb Group MM 60 0:49:47 4,07
40 87 Di  Matteo  Mario 55 Atl. Capanne MM 55 0:50:04 4,08
41 89 Manetta Sergio 55 Atl. Capanne MM 55 0:50:09 4,09
42 43 Binacci Massimo 65 Atl Avis Pg MM 45 0:50:11 4,09
43 14 Fastellini  Paolo 78 Dream Runners PG AM.TM 0:50:15 4,09
44 58 Bagna Mirko Mario 59 Pol. S.Orso (Aosta) MM 50 0:50:33 4,11
45 109 Valente  Raffaello 52 G.S. Alpini (VI) MM 60 0:50:52 4,12
46 44 Bosco Sabino 66 Assisi Runners MM 45 0:50:55 4,12
47 18 Brunelli  Alessandro 78 Dream Runners PG AM.TM 0:51:03 4,13
48 31 Lazzarini Francesco 69 Assisi Runners MM 40 0:51:46 4,17
49 70 Mariani Massimo 62 Lino Spagnoli MM 50 0:51:50 4,17
50 91 Natalicchi  Cesare 56 Dream Runners PG MM 55 0:51:56 4,18
51 61 Bucari Fazio 61 Pod. Carsulae MM 50 0:52:02 4,18
52 94 Porchetti Fabrizio 56 POD. Mirycae (TR) MM 55 0:52:05 4,18
53 52 Paoloni Piero 64 Atl. Capanne MM 45 0:52:14 4,19
54 95 Righini Solerte 54 D.L.F. Rimini MM 55 0:52:28 4,20
55 20 Caporaletti Simone 76 Avis Uispsport Todi MM 35 0:52:34 4,21
56 104 Passeri Luciano 51 Atl. Il Colle MM 60 0:52:35 4,21
57 97 Tortorella  Carlo 55 C.d.p. Trb Group MM 55 0:52:39 4,21
58 48 Chessa  Giovanni 65 Atl. Capanne MM 45 0:52:49 4,22
59 35 Procacci Nadio 70 Marthon Castello MM 40 0:53:01 4,23
60 63 Canapari Francesco 58 Atl Avis Pg MM 50 0:53:04 4,23
61 23 Saccoccini  Marco 77 Atl. Il Colle MM 35 0:53:18 4,24
62 76 Perin Tiziano 58 Idealdoor S.Biagio (TV) MM 50 0:53:22 4,25
63 27 Antonini G.Luca 72 Assisi Runners MM 40 0:53:58 4,28
64 53 Pastore Lorenzo 67 Winner Foligno MM 45 0:54:19 4,29
65 45 Capodimonti Fausto 67 Winner Foligno MM 45 0:54:20 4,29
66 15 Felici Dimitri 81 Atl. Montefiascone (VT) AM.TM 0:54:23 4,30
67 38 Vecchini  Sergio 70 Marathon Castello MM 40 0:54:32 4,30
68 84 Corso Vittorino 53 G.S. Alpini (VI) MM 55 0:54:35 4,31
69 32 Meini Giuseppe 68 Avis San Sepolcro MM 40 0:54:53 4,32
70 81 Boncio Maurizio 56 Aspa Bastia MM 55 0:55:01 4,33
71 85 Dal Pra Riccardo 53 G.S. Alpini (VI) MM 55 0:55:10 4,34
72 93 Pierelli Vinicio 56 Atl. Taino MM 55 0:55:39 4,36
73 78 Valente Giuseppe Nicola 60 Avisincorsa Conversano (BA) MM 50 0:55:57 4,37
74 21 Giubilei Riccardo 73 Uisp Avis Terni MM 35 0:56:09 4,38
75 28 Cucchia  Gianni 71 Volumnia Sericap MM 40 0:56:10 4,39
76 51 Menconi Antonello 67 C.d.p. Trb Group MM 45 0:56:18 4,39
77 49 Goracci Marco 66 Volumnia Sericap MM 45 0:56:25 4,40
78 90 Mazzoli Andrea 55 Lolli Auto (BO) MM 55 0:56:35 4,41
79 105 Puccio  Francesco 49 Atl Pavese (MI) MM 60 0:56:57 4,42
80 80 Bonafé  Corrado 53 Castenaso (BO) MM 55 0:57:07 4,43
81 114 Mancinelli Sergio 45 Assi Giglio Rosso (Fi) MM 65 0:58:00 4,48
82 46 Cardaioli  Danilo 63 Atl. Il Colle MM 45 0:58:08 4,48
83 115 Ministro Giancarlo 43 Amatori Podistica Terni MM 65 0:58:09 4,48
84 99 Baldassarri Luciano 48 UISP Faenza MM 60 0:58:27 4,50
85 65 Dal Santo  Erminio 58 G.S. Alpini (VI) MM 50 0:58:43 4,51
86 17 Uruci Ermal 84 Pod. Corciano AM.TM 0:58:50 4,52
87 113 Inzerillo Giovanni 46 Atl. Intesa Milano MM 65 0:59:44 4,56
88 112 Gasparetto Luciano 47 G.P. Montebelluna MM 65 1:00:04 4,58
89 30 Falaschi  Daniele 71 C.d.p. Trb Group MM 40 1:00:28 5,00
90 100 Gennari Giuliano 49 Amatori Podistica Terni MM 60 1:00:37 5,01
91 60 Bottoloni  Raffaele 60 Volumnia Sericap MM 50 1:00:39 5,01
92 66 Franco Dario 58 G.S. Pomaretto MM 50 1:00:46 5,01
93 121 Nobili  Pietro 40 G.P. Garlaschese (PV) MM 70 1:00:50 5,02
94 82 Bortolan  Renzo 53 Idealdoor S.Biagio (TV) MM 55 1:01:07 5,03
95 98 Zorzanello Giovanni 55 G.S. Mombocar (VR) MM 55 1:01:13 5,04
96 29 De Rosa Raffaele 72 Atl. Capanne MM 40 1:01:21 5,04
97 122 Ricci  Francesco 39 Volumnia Sericap MM 70 1:01:31 5,05
98 117 Ortica Adriano 46 Atl. Il Colle MM 65 1:01:33 5,05
99 96 Rondini Stefano 54 Atl Avis Pg MM 55 1:01:34 5,05
100 83 Castraberte  Fausto  55 Dream Runners PG MM 55 1:01:42 5,06
101 79 Verdinelli Fabio 58 Winner Foligno MM 50 1:01:44 5,06
102 92 Negroni Sergio 53 Winner Foligno MM 55 1:01:53 5,07
103 108 Strada Mario 52 G.P. Garlaschese (PV) MM 60 1:02:03 5,08
104 62 Camerucci Tiberio 60 Winner Foligno MM 50 1:02:30 5,10
105 120 Moroni Bruno 42 Atl. Capanne MM 70 1:02:33 5,10
106 77 Piccini Franco 58 Atl. Capanne MM 50 1:02:46 5,11
107 118 Taddei Nazzareno 46 Satrini Group Trevi MM 65 1:04:52 5,22
108 124 Airoli Silvano 50 La Michetta MM 60 1:05:21 5,24
109 116 Moracci  Guerrino 46 Atl. Intesa Milano MM 65 1:05:42 5,26
110 110 Ceppi Agostino 44 Winner Foligno MM 65 1:08:38 5,40
111 73 Orioli Sergio 58 Atl. Capanne MM 50 1:08:45 5,41
112 69 Grillo Giacomo 58 Amatori Podistica Terni MM 50 1:09:40 5,45
113 39 Vettese Marcello 72 Amatori Podistica Terni MM 40 1:15:16 6,13
114 50 Laoreti Fabio 66 Amatori Podistica Terni MM 45 1:15:16 6,13
115 119 Ciampi  Vittorio 40 C.d.p. Trb Group MM 70 1:18:42 6,30
116 106 Rizzo Giorgio 49 Assindustria Rovigo MM 60 1:21:10 6,42
117 123 Brunetti  Benito 34 Volumnia Sericap MM 75 1:26:00 7,06
118 111 Cucchetti  Fabrizio 46 Atl Pavese (MI) MM 65 1:26:03 7,07
16 Pierini Roberto 87 Filippide AM.TM NP  
19 Bartoccini Paolo 75 Volumnia Sericap MM 35 NP  
59 Bianchi Walter 58 Dream Runners PG MM 50 NP  
72 Micanti  G. Carlo 62 Dream Runners PG MM 50 NP  
103 Pascucci Leandro 51 Asal Foligno MM 60 NP  
107 Spoletini Luciano 48 Simmel Colleferro (RM) MM 60 NP  
CLASSIFICA ASSOLUTA FEMMINILE
Pos. Pet. Cognome Nome Anno Societa' Categoria Tempo Media
1 144 Nanu Ana 73 Gabbi Bologna MF 35 0:50:59 4,13
2 142 Enriquez Irene 77 Atl. Il Colle MF 35 0:51:30 4,15
3 155 Draoli Maria Cristina 64 Assisi Runners MF 45 0:51:46 4,17
4 174 Galbani Anna Maria 52 La Michetta (MI) MF 60 0:53:07 4,23
5 150 Pappadŕ Roberta 68 Atl Avis Pg MF 40 0:53:20 4,24
6 147 Krejci Susanne 72 Atl. Il Colle MF 40 0:53:58 4,28
7 171 Lambertini Paola 57 Atl. 85 Faenza MF 55 0:55:10 4,34
8 159 Palombi  Roberta 63 Atl Avis Pg MF 45 0:55:45 4,36
9 158 Murasecco  Pierpaola 66 Atl Avis Pg MF 45 0:57:50 4,47
10 148 Donnini Fabiola 72 Atl. Taino MF 40 0:57:53 4,47
11 165 Picchio M. Luisa 62 Atl. Avis Pg MF 50 0:57:55 4,47
12 145 Piastra  Lorena 77 C.d.p. Trb Group MF 35 0:58:28 4,50
13 146 Vichi Katiuscia 74 Pod. Corciano MF 35 0:58:50 4,52
14 151 Severini  Sarita 69 Lino Spagnoli MF 40 0:59:07 4,53
15 153 Anastasi Catia Lucia 64 Atl. Taino MF 45 0:59:23 4,54
16 166 Strada  M. Teresa 58 G.P. Garlaschese (PV) MF 50 0:59:52 4,57
17 170 Danese M. Antonietta 53 G.S. Alpini (VI) MF 55 1:00:03 4,58
18 152 Agabiti Carolina 63 Amatori Podistica Terni MF 45 1:00:38 5,01
19 167 Fabri Patrizia 60 Aspa Bastia MF 50 1:00:52 5,02
20 156 Falchetti  Anna Maria 66 C.d.p. Trb Group MF 45 1:00:54 5,02
21 172 Tron Anita 55 G.S. Pomaretto MF 55 1:00:56 5,02
22 141 Rinaldi Laura 81 Pod. Corciano AM.TF 1:01:27 5,05
23 163 Basigli Ivana 62 Atl. Capanne MF 50 1:01:29 5,05
24 176 Mattiolo Franca 48 Atl Pavese (MI) MF 60 1:01:43 5,06
25 164 Campigotto Maria Teresa 61 Idealdoor S.Biagio (TV) MF 50 1:02:09 5,08
26 160 Staccioli Gabriela 64 A.P. Ponte Felcino MF 45 1:02:10 5,08
27 157 Giorgetti  Claudia 66 Dream Runners PG MF 45 1:02:42 5,11
28 143 Munz  Dorothee 77 Atl. Il Colle MF 35 1:03:17 5,14
29 173 Bombardieri Mirka 52 Assindustria Rovigo MF 60 1:03:30 5,15
30 149 Massetti Monia 70 Lino Spagnoli MF 40 1:05:23 5,24
31 168 Anastasi Lydia Beatrice 57 Atl. Taino MF 55 1:07:48 5,36
32 162 Vagnarelli Rema 64 Aspa Bastia MF 45 1:08:01 5,37
33 175 Marcolin  Norina 50 G.P. Montebelluna MF 60 1:10:36 5,50
34 169 Cattelan Graziana 55 Idealdoor S.Biagio (TV) MF 55 1:11:27 5,54
35 177 Poggi M. Rosa 50 US Scalo Voghera (PV) MF 60 1:11:51 5,56
36 178 Invernizzi  Carilla 47 G.P. Garlaschese (PV) MF 65 1:13:10 6,03
37 179 Stringo  Irene 42 Atl Pavese (MI) MF 65 1:17:36 6,25
38 180 Tartamelli Lina 46 Amatori Podistica Terni MF 65 1:18:50 6,31
39 161 Vaccarini  Patrizia 65 Amatori Podistica Terni MF 45 NP  

------------------------------

------------------------------

------------------------------